createdAt,value
2018-04-29T00:01:52.283Z,51.25
2018-04-29T00:04:24.777Z,51.45
2018-04-29T00:06:57.366Z,51.50
2018-04-29T00:09:29.951Z,50.81
2018-04-29T00:12:02.933Z,51.16
2018-04-29T00:14:35.640Z,50.88
2018-04-29T00:17:08.226Z,50.82
2018-04-29T00:19:40.721Z,51.36
2018-04-29T00:22:13.305Z,51.04
2018-04-29T00:24:45.880Z,51.50
2018-04-29T00:27:18.396Z,51.47
2018-04-29T00:29:50.895Z,51.06
2018-04-29T00:32:23.451Z,51.62
2018-04-29T00:34:56.028Z,51.77
2018-04-29T00:37:28.620Z,51.45
2018-04-29T00:40:01.143Z,51.46
2018-04-29T00:42:34.722Z,51.71
2018-04-29T00:45:07.219Z,51.76
2018-04-29T00:47:39.735Z,51.97
2018-04-29T00:50:12.268Z,51.92
2018-04-29T00:52:44.775Z,52.24
2018-04-29T00:55:17.272Z,52.01
2018-04-29T00:57:49.788Z,51.95
2018-04-29T01:00:22.276Z,52.13
2018-04-29T01:02:54.895Z,52.11
2018-04-29T01:05:27.388Z,52.36
2018-04-29T01:07:59.904Z,52.55
2018-04-29T01:10:32.726Z,52.40
2018-04-29T01:13:05.338Z,52.50
2018-04-29T01:15:37.837Z,52.39
2018-04-29T01:18:10.418Z,52.92
2018-04-29T01:20:42.914Z,52.41
2018-04-29T01:23:15.525Z,52.74
2018-04-29T01:25:48.012Z,52.71
2018-04-29T01:28:20.527Z,52.50
2018-04-29T01:30:53.036Z,52.51
2018-04-29T01:33:25.623Z,52.88
2018-04-29T01:35:58.121Z,52.75
2018-04-29T01:38:30.626Z,52.62
2018-04-29T01:41:03.894Z,52.88
2018-04-29T01:43:36.474Z,52.27
2018-04-29T01:46:09.062Z,52.57
2018-04-29T01:48:41.646Z,52.68
2018-04-29T01:51:14.137Z,52.57
2018-04-29T01:53:46.716Z,52.26
2018-04-29T01:56:19.298Z,52.29
2018-04-29T01:58:51.890Z,52.45
2018-04-29T02:01:24.476Z,52.43
2018-04-29T02:03:57.056Z,52.85
2018-04-29T02:06:29.558Z,53.11
2018-04-29T02:09:03.059Z,53.07
2018-04-29T02:11:35.568Z,53.23
2018-04-29T02:14:08.076Z,52.61
2018-04-29T02:16:40.598Z,52.68
2018-04-29T02:19:13.187Z,52.99
2018-04-29T02:21:45.770Z,53.38
2018-04-29T02:24:18.357Z,53.13
2018-04-29T02:26:50.860Z,53.33
2018-04-29T02:29:23.388Z,53.59
2018-04-29T02:31:55.882Z,53.51
2018-04-29T02:34:28.397Z,53.59
2018-04-29T02:37:00.972Z,54.05
2018-04-29T02:39:34.499Z,53.90
2018-04-29T02:42:07.012Z,54.06
2018-04-29T02:44:39.535Z,54.05
2018-04-29T02:47:12.036Z,53.76
2018-04-29T02:49:44.599Z,54.30
2018-04-29T02:52:17.114Z,54.52
2018-04-29T02:54:49.631Z,54.13
2018-04-29T02:57:22.149Z,53.93
2018-04-29T02:59:54.639Z,54.18
2018-04-29T03:02:27.271Z,54.27
2018-04-29T03:04:59.870Z,54.36
2018-04-29T03:07:32.842Z,54.14
2018-04-29T03:10:05.428Z,54.49
2018-04-29T03:12:37.923Z,54.62
2018-04-29T03:15:10.434Z,54.69
2018-04-29T03:17:42.922Z,54.68
2018-04-29T03:20:15.431Z,54.71
2018-04-29T03:22:47.936Z,54.42
2018-04-29T03:25:20.512Z,54.63
2018-04-29T03:27:53.119Z,54.21
2018-04-29T03:30:25.707Z,54.22
2018-04-29T03:32:58.190Z,54.56
2018-04-29T03:35:30.716Z,54.88
2018-04-29T03:38:04.255Z,55.29
2018-04-29T03:40:36.766Z,54.97
2018-04-29T03:43:09.264Z,55.01
2018-04-29T03:45:41.786Z,55.02
2018-04-29T03:48:14.274Z,55.00
2018-04-29T03:50:46.803Z,54.74
2018-04-29T03:53:19.395Z,54.54
2018-04-29T03:55:51.986Z,54.94
2018-04-29T03:58:36.392Z,54.91
2018-04-29T04:01:20.627Z,54.63
2018-04-29T04:04:03.659Z,54.54
2018-04-29T04:06:36.223Z,54.81
2018-04-29T04:09:08.743Z,55.16
2018-04-29T04:11:41.299Z,55.34
2018-04-29T04:14:13.811Z,55.46
2018-04-29T04:16:46.371Z,55.52
2018-04-29T04:19:18.962Z,55.45
2018-04-29T04:21:51.459Z,55.87
2018-04-29T04:24:23.995Z,56.14
2018-04-29T04:26:56.487Z,56.08
2018-04-29T04:29:29.012Z,55.79
2018-04-29T04:32:02.179Z,55.37
2018-04-29T04:34:34.711Z,55.54
2018-04-29T04:37:07.207Z,55.53
2018-04-29T04:39:39.724Z,55.15
2018-04-29T04:42:12.240Z,55.35
2018-04-29T04:44:44.819Z,55.47
2018-04-29T04:47:17.436Z,55.19
2018-04-29T04:49:49.987Z,55.05
2018-04-29T04:52:22.583Z,55.24
2018-04-29T04:54:55.090Z,56.38
2018-04-29T04:57:27.578Z,56.19
2018-04-29T05:00:00.087Z,55.41
2018-04-29T05:02:32.839Z,54.53
2018-04-29T05:05:05.352Z,53.77
2018-04-29T05:07:37.879Z,54.10
2018-04-29T05:10:10.393Z,52.66
2018-04-29T05:12:42.887Z,51.16
2018-04-29T05:15:15.408Z,51.13
2018-04-29T05:17:47.896Z,49.66
2018-04-29T05:20:20.457Z,47.93
2018-04-29T05:22:52.947Z,46.59
2018-04-29T05:25:25.566Z,45.43
2018-04-29T05:27:58.051Z,42.93
2018-04-29T05:30:30.560Z,40.78
2018-04-29T05:33:03.753Z,40.28
2018-04-29T05:35:36.323Z,40.67
2018-04-29T05:38:08.815Z,39.88
2018-04-29T05:40:41.352Z,38.74
2018-04-29T05:43:13.843Z,39.94
2018-04-29T05:45:46.561Z,38.55
2018-04-29T05:48:19.149Z,37.14
2018-04-29T05:50:51.663Z,37.52
2018-04-29T05:53:24.163Z,36.32
2018-04-29T05:55:56.707Z,39.04
2018-04-29T05:58:29.298Z,36.98
2018-04-29T06:01:01.811Z,38.65
2018-04-29T06:03:34.358Z,38.16
2018-04-29T06:06:06.877Z,38.25
2018-04-29T06:08:39.556Z,38.87
2018-04-29T06:11:12.082Z,39.76
2018-04-29T06:13:44.738Z,40.70
2018-04-29T06:16:17.283Z,41.63
2018-04-29T06:18:49.780Z,41.63
2018-04-29T06:21:22.450Z,41.05
2018-04-29T06:23:55.055Z,38.42
2018-04-29T06:26:27.583Z,39.17
2018-04-29T06:29:00.085Z,39.50
2018-04-29T06:31:32.611Z,39.06
2018-04-29T06:34:05.107Z,38.51
2018-04-29T06:36:37.671Z,39.06
2018-04-29T06:39:10.275Z,40.83
2018-04-29T06:41:42.856Z,41.06
2018-04-29T06:44:15.431Z,40.49
2018-04-29T06:46:48.046Z,41.47
2018-04-29T06:49:20.596Z,40.68
2018-04-29T06:51:53.188Z,40.21
2018-04-29T06:54:25.778Z,40.80
2018-04-29T06:56:58.299Z,41.43
2018-04-29T06:59:30.835Z,40.62
2018-04-29T07:02:03.841Z,41.57
2018-04-29T07:04:36.338Z,41.80
2018-04-29T07:07:08.860Z,42.51
2018-04-29T07:09:41.351Z,42.39
2018-04-29T07:12:13.904Z,41.85
2018-04-29T07:14:46.451Z,41.98
2018-04-29T07:17:19.035Z,41.87
2018-04-29T07:19:51.529Z,40.75
2018-04-29T07:22:24.058Z,40.77
2018-04-29T07:24:56.560Z,39.41
2018-04-29T07:27:29.187Z,40.85
2018-04-29T07:30:01.788Z,41.13
2018-04-29T07:32:34.360Z,42.17
2018-04-29T07:35:06.940Z,40.77
2018-04-29T07:37:39.527Z,41.18
2018-04-29T07:40:12.051Z,40.07
2018-04-29T07:42:44.591Z,41.60
2018-04-29T07:45:17.126Z,41.23
2018-04-29T07:47:49.643Z,40.84
2018-04-29T07:50:22.142Z,40.74
2018-04-29T07:52:54.726Z,40.56
2018-04-29T07:55:27.217Z,41.12
2018-04-29T07:57:59.787Z,40.51
2018-04-29T08:00:32.837Z,39.75
2018-04-29T08:03:05.394Z,39.19
2018-04-29T08:05:37.886Z,38.90
2018-04-29T08:08:10.405Z,38.02
2018-04-29T08:10:42.891Z,38.05
2018-04-29T08:13:15.407Z,37.04
2018-04-29T08:15:48.003Z,37.02
2018-04-29T08:18:20.443Z,37.52
2018-04-29T08:20:52.938Z,36.37
2018-04-29T08:23:25.448Z,38.16
2018-04-29T08:25:58.030Z,38.58
2018-04-29T08:28:30.553Z,38.28
2018-04-29T08:31:04.036Z,37.85
2018-04-29T08:33:36.578Z,38.24
2018-04-29T08:36:09.071Z,37.78
2018-04-29T08:38:41.672Z,37.17
2018-04-29T08:41:14.167Z,37.95
2018-04-29T08:43:46.736Z,36.47
2018-04-29T08:46:19.319Z,36.21
2018-04-29T08:48:51.903Z,36.22
2018-04-29T08:51:24.394Z,36.58
2018-04-29T08:53:56.911Z,36.93
2018-04-29T08:56:29.407Z,35.56
2018-04-29T08:59:02.697Z,35.47
2018-04-29T09:01:35.202Z,34.41
2018-04-29T09:04:07.748Z,35.98
2018-04-29T09:06:40.247Z,34.32
2018-04-29T09:09:12.812Z,34.58
2018-04-29T09:11:45.323Z,34.75
2018-04-29T09:14:17.842Z,35.36
2018-04-29T09:16:50.386Z,36.14
2018-04-29T09:19:22.955Z,35.07
2018-04-29T09:21:55.470Z,34.10
2018-04-29T09:24:27.967Z,35.41
2018-04-29T09:27:00.475Z,33.50
2018-04-29T09:29:33.528Z,32.16
2018-04-29T09:32:06.096Z,32.67
2018-04-29T09:34:38.666Z,32.48
2018-04-29T09:37:11.240Z,33.63
2018-04-29T09:39:43.707Z,33.46
2018-04-29T09:42:16.224Z,32.11
2018-04-29T09:44:48.720Z,31.60
2018-04-29T09:47:21.232Z,32.78
2018-04-29T09:49:53.723Z,32.21
2018-04-29T09:52:26.255Z,32.47
2018-04-29T09:54:58.837Z,32.93
2018-04-29T09:57:31.987Z,32.29
2018-04-29T10:00:04.474Z,30.58
2018-04-29T10:02:36.995Z,31.18
2018-04-29T10:05:09.482Z,30.45
2018-04-29T10:07:42.001Z,30.04
2018-04-29T10:10:14.496Z,30.21
2018-04-29T10:12:47.039Z,31.88
2018-04-29T10:15:19.527Z,31.44
2018-04-29T10:17:52.284Z,29.55
2018-04-29T10:20:24.774Z,29.83
2018-04-29T10:22:57.359Z,30.52
2018-04-29T10:25:29.854Z,30.04
2018-04-29T10:28:02.842Z,31.59
2018-04-29T10:30:35.338Z,31.42
2018-04-29T10:33:07.884Z,31.49
2018-04-29T10:35:40.367Z,30.09
2018-04-29T10:38:12.916Z,31.71
2018-04-29T10:40:45.404Z,30.49
2018-04-29T10:43:17.927Z,29.61
2018-04-29T10:45:50.479Z,30.01
2018-04-29T10:48:23.055Z,28.57
2018-04-29T10:50:55.548Z,28.92
2018-04-29T10:53:28.134Z,29.06
2018-04-29T10:56:00.637Z,29.74
2018-04-29T10:58:33.185Z,28.84
2018-04-29T11:01:05.680Z,29.56
2018-04-29T11:03:38.202Z,29.50
2018-04-29T11:06:10.707Z,30.53
2018-04-29T11:08:43.223Z,32.00
2018-04-29T11:11:15.720Z,29.65
2018-04-29T11:13:48.239Z,31.43
2018-04-29T11:16:20.735Z,31.13
2018-04-29T11:18:53.278Z,28.99
2018-04-29T11:21:25.772Z,30.73
2018-04-29T11:23:58.350Z,32.43
2018-04-29T11:26:30.849Z,29.86
2018-04-29T11:29:03.928Z,28.89
2018-04-29T11:31:36.418Z,28.57
2018-04-29T11:34:09.002Z,30.07
2018-04-29T11:36:41.497Z,28.02
2018-04-29T11:39:14.075Z,30.22
2018-04-29T11:41:46.574Z,28.83
2018-04-29T11:44:19.143Z,30.08
2018-04-29T11:46:51.636Z,31.31
2018-04-29T11:49:24.199Z,28.37
2018-04-29T11:51:56.691Z,31.05
2018-04-29T11:54:29.207Z,30.20
2018-04-29T11:57:01.772Z,29.34
2018-04-29T11:59:34.316Z,30.71
2018-04-29T12:02:06.812Z,30.42
2018-04-29T12:04:39.331Z,29.80
2018-04-29T12:07:11.901Z,31.65
2018-04-29T12:09:44.416Z,29.72
2018-04-29T12:12:16.916Z,30.96
2018-04-29T12:14:49.436Z,29.97
2018-04-29T12:17:22.028Z,31.16
2018-04-29T12:19:54.552Z,29.83
2018-04-29T12:22:27.054Z,31.48
2018-04-29T12:24:59.595Z,31.65
2018-04-29T12:27:32.618Z,32.45
2018-04-29T12:30:05.135Z,31.54
2018-04-29T12:32:37.647Z,30.87
2018-04-29T12:35:10.248Z,30.80
2018-04-29T12:37:42.842Z,29.79
2018-04-29T12:40:15.418Z,30.05
2018-04-29T12:42:47.914Z,31.41
2018-04-29T12:45:20.440Z,31.71
2018-04-29T12:47:52.932Z,31.40
2018-04-29T12:50:25.473Z,29.62
2018-04-29T12:52:57.985Z,29.87
2018-04-29T12:55:30.501Z,28.68
2018-04-29T12:58:03.634Z,29.13
2018-04-29T13:00:36.153Z,28.68
2018-04-29T13:03:08.696Z,29.50
2018-04-29T13:05:41.297Z,27.26
2018-04-29T13:08:13.810Z,26.81
2018-04-29T13:10:46.332Z,25.34
2018-04-29T13:13:18.818Z,23.09
2018-04-29T13:15:51.329Z,21.73
2018-04-29T13:18:23.820Z,22.47
2018-04-29T13:20:56.382Z,21.11
2018-04-29T13:23:28.881Z,19.14
2018-04-29T13:26:01.610Z,18.46
2018-04-29T13:28:34.148Z,20.37
2018-04-29T13:31:06.731Z,19.51
2018-04-29T13:33:39.231Z,18.29
2018-04-29T13:36:12.076Z,18.84
2018-04-29T13:38:44.579Z,19.21
2018-04-29T13:41:17.097Z,18.97
2018-04-29T13:43:49.582Z,19.98
2018-04-29T13:46:22.135Z,21.22
2018-04-29T13:48:54.785Z,22.27
2018-04-29T13:51:27.303Z,24.53
2018-04-29T13:53:59.787Z,24.39
2018-04-29T13:56:32.788Z,23.88
2018-04-29T13:59:05.285Z,23.01
2018-04-29T14:01:37.862Z,24.29
2018-04-29T14:04:10.358Z,25.28
2018-04-29T14:06:42.928Z,25.29
2018-04-29T14:09:15.419Z,27.50
2018-04-29T14:11:47.941Z,27.98
2018-04-29T14:14:20.476Z,28.31
2018-04-29T14:16:53.002Z,28.67
2018-04-29T14:19:25.526Z,27.68
2018-04-29T14:21:58.066Z,28.31
2018-04-29T14:24:30.576Z,29.44
2018-04-29T14:27:03.918Z,27.92
2018-04-29T14:29:36.448Z,28.55
2018-04-29T14:32:08.934Z,27.72
2018-04-29T14:34:41.447Z,28.54
2018-04-29T14:37:13.960Z,29.58
2018-04-29T14:39:46.496Z,29.03
2018-04-29T14:42:19.034Z,28.47
2018-04-29T14:44:51.624Z,28.07
2018-04-29T14:47:24.118Z,28.52
2018-04-29T14:49:56.685Z,28.93
2018-04-29T14:52:29.167Z,28.36
2018-04-29T14:55:01.745Z,28.88
2018-04-29T14:57:34.362Z,29.46
2018-04-29T15:00:06.878Z,29.38
2018-04-29T15:02:39.415Z,29.62
2018-04-29T15:05:12.009Z,29.82
2018-04-29T15:07:44.505Z,30.81
2018-04-29T15:10:17.029Z,30.07
2018-04-29T15:12:49.519Z,29.98
2018-04-29T15:15:22.149Z,29.55
2018-04-29T15:17:54.631Z,29.87
2018-04-29T15:20:27.163Z,30.44
2018-04-29T15:22:59.699Z,30.41
2018-04-29T15:25:32.506Z,30.37
2018-04-29T15:28:04.996Z,30.79
2018-04-29T15:30:37.515Z,30.70
2018-04-29T15:33:10.007Z,31.40
2018-04-29T15:35:42.649Z,30.94
2018-04-29T15:38:15.233Z,31.15
2018-04-29T15:40:47.736Z,31.12
2018-04-29T15:43:20.914Z,30.99
2018-04-29T15:45:53.972Z,30.72
2018-04-29T15:48:26.587Z,30.64
2018-04-29T15:50:59.391Z,30.77
2018-04-29T15:53:32.801Z,30.38
2018-04-29T15:56:05.635Z,30.26
2018-04-29T15:58:38.614Z,30.57
2018-04-29T16:01:11.210Z,30.58
2018-04-29T16:03:44.055Z,31.17
2018-04-29T16:06:16.995Z,31.15
2018-04-29T16:08:49.486Z,31.43
2018-04-29T16:11:22.121Z,30.82
2018-04-29T16:13:55.418Z,32.46
2018-04-29T16:16:27.999Z,31.73
2018-04-29T16:19:00.521Z,31.94
2018-04-29T16:21:34.201Z,31.63
2018-04-29T16:24:07.001Z,32.79
2018-04-29T16:26:39.537Z,33.52
2018-04-29T16:29:12.159Z,32.92
2018-04-29T16:31:45.027Z,33.40
2018-04-29T16:34:17.761Z,33.27
2018-04-29T16:36:50.930Z,33.85
2018-04-29T16:39:23.952Z,34.17
2018-04-29T16:41:56.596Z,34.38
2018-04-29T16:44:29.154Z,34.93
2018-04-29T16:47:02.227Z,35.27
2018-04-29T16:49:34.793Z,35.21
2018-04-29T16:52:09.122Z,35.58
2018-04-29T16:54:42.233Z,35.26
2018-04-29T16:57:15.235Z,36.72
2018-04-29T16:59:48.053Z,38.52
2018-04-29T17:02:20.611Z,39.68
2018-04-29T17:04:53.835Z,40.28
2018-04-29T17:07:26.634Z,42.52
2018-04-29T17:09:59.620Z,44.23
2018-04-29T17:12:32.779Z,45.37
2018-04-29T17:15:05.789Z,47.08
2018-04-29T17:17:38.594Z,48.00
2018-04-29T17:20:11.776Z,48.26
2018-04-29T17:22:44.593Z,47.49
2018-04-29T17:25:17.677Z,48.79
2018-04-29T17:27:51.377Z,47.72
2018-04-29T17:30:24.577Z,49.15
2018-04-29T17:32:57.373Z,49.81
2018-04-29T17:35:30.284Z,48.93
2018-04-29T17:38:02.898Z,49.27
2018-04-29T17:40:35.911Z,47.32
2018-04-29T17:43:09.368Z,46.99
2018-04-29T17:45:41.880Z,46.53
2018-04-29T17:48:14.436Z,46.85
2018-04-29T17:50:47.568Z,46.10
2018-04-29T17:53:20.250Z,46.16
2018-04-29T17:55:53.119Z,43.95
2018-04-29T17:58:25.976Z,44.84
2018-04-29T18:00:58.562Z,45.62
2018-04-29T18:03:31.587Z,44.79
2018-04-29T18:06:04.685Z,44.97
2018-04-29T18:08:37.422Z,44.31
2018-04-29T18:11:10.061Z,44.43
2018-04-29T18:13:42.815Z,45.00
2018-04-29T18:16:15.307Z,44.72
2018-04-29T18:18:48.203Z,44.75
2018-04-29T18:21:20.695Z,43.70
2018-04-29T18:23:53.931Z,44.06
2018-04-29T18:26:26.584Z,44.16
2018-04-29T18:28:59.492Z,45.04
2018-04-29T18:31:32.284Z,44.44
2018-04-29T18:34:04.916Z,44.33
2018-04-29T18:36:37.740Z,43.61
2018-04-29T18:39:10.398Z,43.15
2018-04-29T18:41:43.184Z,42.45
2018-04-29T18:44:16.192Z,42.54
2018-04-29T18:46:49.036Z,42.60
2018-04-29T18:49:21.919Z,42.96
2018-04-29T18:51:54.487Z,42.54
2018-04-29T18:54:27.396Z,43.16
2018-04-29T18:57:00.139Z,42.54
2018-04-29T18:59:32.694Z,42.34
2018-04-29T19:02:06.081Z,42.06
2018-04-29T19:04:38.987Z,42.16
2018-04-29T19:07:11.583Z,42.46
2018-04-29T19:09:44.523Z,42.23
2018-04-29T19:12:17.248Z,42.29
2018-04-29T19:14:50.302Z,42.40
2018-04-29T19:17:22.850Z,42.91
2018-04-29T19:19:55.336Z,42.79
2018-04-29T19:22:27.880Z,42.63
2018-04-29T19:25:00.583Z,42.82
2018-04-29T19:27:34.060Z,42.83
2018-04-29T19:30:06.804Z,42.89
2018-04-29T19:32:40.053Z,43.18
2018-04-29T19:35:12.755Z,43.59
2018-04-29T19:37:45.359Z,43.34
2018-04-29T19:40:18.151Z,43.36
2018-04-29T19:42:51.051Z,43.44
2018-04-29T19:45:23.543Z,43.05
2018-04-29T19:47:56.055Z,43.23
2018-04-29T19:50:28.991Z,43.24
2018-04-29T19:53:02.419Z,43.34
2018-04-29T19:55:35.206Z,43.40
2018-04-29T19:58:08.001Z,43.59
2018-04-29T20:00:40.744Z,43.78
2018-04-29T20:03:13.445Z,44.09
2018-04-29T20:05:45.928Z,44.33
2018-04-29T20:08:18.608Z,44.88
2018-04-29T20:10:51.299Z,45.11
2018-04-29T20:13:24.064Z,45.23
2018-04-29T20:15:56.603Z,45.00
2018-04-29T20:18:29.215Z,44.86
2018-04-29T20:21:01.740Z,44.86
2018-04-29T20:23:34.487Z,44.74
2018-04-29T20:26:07.954Z,45.30
2018-04-29T20:28:40.823Z,44.60
2018-04-29T20:31:13.519Z,44.74
2018-04-29T20:33:46.400Z,44.78
2018-04-29T20:36:18.962Z,44.89
2018-04-29T20:38:52.448Z,44.84
2018-04-29T20:41:25.116Z,44.91
2018-04-29T20:43:57.767Z,45.54
2018-04-29T20:46:30.619Z,45.02
2018-04-29T20:49:04.392Z,45.25
2018-04-29T20:51:37.771Z,45.17
2018-04-29T20:54:10.827Z,45.52
2018-04-29T20:56:43.514Z,45.52
2018-04-29T20:59:16.225Z,45.88
2018-04-29T21:01:48.723Z,45.96
2018-04-29T21:04:21.494Z,45.79
2018-04-29T21:06:53.984Z,45.88
2018-04-29T21:09:26.645Z,45.27
2018-04-29T21:11:59.282Z,45.57
2018-04-29T21:14:32.712Z,45.14
2018-04-29T21:17:05.679Z,45.11
2018-04-29T21:19:38.339Z,45.07
2018-04-29T21:22:11.039Z,45.06
2018-04-29T21:24:44.033Z,44.59
2018-04-29T21:27:16.544Z,44.99
2018-04-29T21:29:49.682Z,45.03
2018-04-29T21:32:22.229Z,44.75
2018-04-29T21:34:54.897Z,45.04
2018-04-29T21:37:27.701Z,45.03
2018-04-29T21:40:00.271Z,44.81
2018-04-29T21:42:33.232Z,44.35
2018-04-29T21:45:06.027Z,44.61
2018-04-29T21:47:39.022Z,45.03
2018-04-29T21:50:11.691Z,44.64
2018-04-29T21:52:44.252Z,44.42
2018-04-29T21:55:16.772Z,44.40
2018-04-29T21:57:49.263Z,44.45
2018-04-29T22:00:21.777Z,43.98
2018-04-29T22:02:54.324Z,44.16
2018-04-29T22:05:26.844Z,43.99
2018-04-29T22:07:59.330Z,43.88
2018-04-29T22:10:32.447Z,44.13
2018-04-29T22:13:05.091Z,43.92
2018-04-29T22:15:37.655Z,43.64
2018-04-29T22:18:10.247Z,43.42
2018-04-29T22:20:42.843Z,42.85
2018-04-29T22:23:15.338Z,43.54
2018-04-29T22:25:47.850Z,43.45
2018-04-29T22:28:26.329Z,43.66
2018-04-29T22:30:58.929Z,44.01
2018-04-29T22:33:31.662Z,44.15
2018-04-29T22:36:04.189Z,44.00
2018-04-29T22:38:36.679Z,44.45
2018-04-29T22:41:09.259Z,43.94
2018-04-29T22:43:41.768Z,43.72
2018-04-29T22:46:14.284Z,43.77
2018-04-29T22:48:46.811Z,44.17
2018-04-29T22:51:19.344Z,44.50
2018-04-29T22:53:51.829Z,44.44
2018-04-29T22:56:24.368Z,45.07
2018-04-29T22:58:56.861Z,44.27
2018-04-29T23:01:29.437Z,44.19
2018-04-29T23:04:02.503Z,44.61
2018-04-29T23:06:35.028Z,44.72
2018-04-29T23:09:07.538Z,44.76
2018-04-29T23:11:40.048Z,44.91
2018-04-29T23:14:12.571Z,44.92
2018-04-29T23:16:45.077Z,45.57
2018-04-29T23:19:17.563Z,45.26
2018-04-29T23:21:50.079Z,45.79
2018-04-29T23:24:22.565Z,45.72
2018-04-29T23:26:55.100Z,46.40
2018-04-29T23:29:27.586Z,46.63
2018-04-29T23:32:00.158Z,46.15
2018-04-29T23:34:32.647Z,46.16
2018-04-29T23:37:05.156Z,46.40
2018-04-29T23:39:37.647Z,46.27
2018-04-29T23:42:10.155Z,47.08
2018-04-29T23:44:42.689Z,46.52
2018-04-29T23:47:15.199Z,46.62
2018-04-29T23:49:47.682Z,46.84
2018-04-29T23:52:20.188Z,46.65
2018-04-29T23:54:52.676Z,46.96
2018-04-29T23:57:25.189Z,46.84
2018-04-29T23:59:57.680Z,47.00
